createdAt,value
2022-11-27T00:01:34.935Z,4.30
2022-11-27T00:04:02.983Z,4.30
2022-11-27T00:06:31.869Z,4.10
2022-11-27T00:09:02.289Z,4.00
2022-11-27T00:11:31.816Z,4.10
2022-11-27T00:14:00.084Z,4.10
2022-11-27T00:16:28.705Z,3.90
2022-11-27T00:18:56.189Z,4.00
2022-11-27T00:21:28.530Z,4.10
2022-11-27T00:23:58.644Z,4.10
2022-11-27T00:26:27.740Z,4.10
2022-11-27T00:28:56.109Z,4.10
2022-11-27T00:31:30.587Z,4.10
2022-11-27T00:34:01.065Z,4.20
2022-11-27T00:36:31.210Z,4.20
2022-11-27T00:38:58.940Z,4.10
2022-11-27T00:41:29.348Z,4.10
2022-11-27T00:43:57.617Z,4.10
2022-11-27T00:46:30.112Z,4.10
2022-11-27T00:49:02.589Z,4.10
2022-11-27T00:51:30.655Z,4.10
2022-11-27T00:53:59.309Z,4.00
2022-11-27T00:56:31.782Z,4.00
2022-11-27T00:59:00.110Z,4.00
2022-11-27T01:01:34.380Z,4.00
2022-11-27T01:04:04.606Z,4.00
2022-11-27T01:06:32.685Z,4.10
2022-11-27T01:09:00.643Z,4.10
2022-11-27T01:11:32.766Z,4.10
2022-11-27T01:14:08.075Z,4.10
2022-11-27T01:16:38.546Z,4.00
2022-11-27T01:19:10.212Z,4.00
2022-11-27T01:21:37.691Z,4.00
2022-11-27T01:24:06.085Z,3.90
2022-11-27T01:26:33.654Z,3.90
2022-11-27T01:29:01.573Z,3.90
2022-11-27T01:31:33.185Z,3.90
2022-11-27T01:34:05.468Z,3.90
2022-11-27T01:36:34.572Z,3.90
2022-11-27T01:39:02.743Z,4.00
2022-11-27T01:41:37.200Z,4.00
2022-11-27T01:44:24.554Z,4.00
2022-11-27T01:47:13.905Z,3.90
2022-11-27T01:49:52.699Z,3.80
2022-11-27T01:52:34.407Z,3.80
2022-11-27T01:55:31.043Z,3.80
2022-11-27T01:58:13.464Z,3.80
2022-11-27T02:00:41.604Z,3.90
2022-11-27T02:03:09.417Z,3.90
2022-11-27T02:05:37.053Z,3.80
2022-11-27T02:08:08.902Z,3.90
2022-11-27T02:10:52.435Z,3.90
2022-11-27T02:13:46.344Z,3.90
2022-11-27T02:16:32.847Z,3.90
2022-11-27T02:19:04.856Z,4.00
2022-11-27T02:21:50.949Z,4.00
2022-11-27T02:24:50.007Z,4.00
2022-11-27T02:27:32.372Z,3.90
2022-11-27T02:30:03.318Z,4.00
2022-11-27T02:33:00.251Z,4.00
2022-11-27T02:35:48.219Z,4.00
2022-11-27T02:38:48.237Z,4.10
2022-11-27T02:41:27.055Z,4.10
2022-11-27T02:43:56.068Z,4.00
2022-11-27T02:46:24.918Z,4.00
2022-11-27T02:49:04.273Z,4.00
2022-11-27T02:51:39.935Z,4.10
2022-11-27T02:54:13.787Z,4.20
2022-11-27T02:56:43.193Z,4.10
2022-11-27T02:59:14.251Z,4.10
2022-11-27T03:01:56.156Z,4.00
2022-11-27T03:04:34.634Z,4.00
2022-11-27T03:07:15.872Z,4.10
2022-11-27T03:09:50.548Z,4.20
2022-11-27T03:12:19.430Z,4.20
2022-11-27T03:14:48.009Z,4.10
2022-11-27T03:17:33.247Z,4.00
2022-11-27T03:20:27.034Z,4.00
2022-11-27T03:22:58.122Z,4.00
2022-11-27T03:25:25.618Z,4.10
2022-11-27T03:28:01.819Z,4.10
2022-11-27T03:30:29.324Z,4.20
2022-11-27T03:32:56.920Z,4.20
2022-11-27T03:35:27.357Z,4.20
2022-11-27T03:37:56.048Z,4.10
2022-11-27T03:40:32.948Z,4.20
2022-11-27T03:43:19.741Z,4.20
2022-11-27T03:46:01.479Z,4.40
2022-11-27T03:48:49.149Z,4.40
2022-11-27T03:51:42.450Z,4.30
2022-11-27T03:54:27.840Z,4.20
2022-11-27T03:57:35.140Z,4.10
2022-11-27T04:00:08.830Z,4.00
2022-11-27T04:02:47.735Z,4.00
2022-11-27T04:05:15.647Z,4.00
2022-11-27T04:07:43.376Z,4.00
2022-11-27T04:10:12.356Z,4.10
2022-11-27T04:12:39.888Z,4.10
2022-11-27T04:15:08.178Z,4.10
2022-11-27T04:17:35.680Z,4.00
2022-11-27T04:20:03.710Z,4.10
2022-11-27T04:22:31.253Z,4.00
2022-11-27T04:24:58.793Z,4.00
2022-11-27T04:27:26.262Z,4.00
2022-11-27T04:29:53.644Z,4.10
2022-11-27T04:32:21.053Z,4.10
2022-11-27T04:34:48.615Z,4.10
2022-11-27T04:37:16.116Z,4.00
2022-11-27T04:39:43.568Z,4.00
2022-11-27T04:42:11.055Z,4.00
2022-11-27T04:44:38.815Z,4.00
2022-11-27T04:47:06.530Z,3.90
2022-11-27T04:49:34.235Z,3.80
2022-11-27T04:52:01.668Z,3.70
2022-11-27T04:54:29.069Z,3.70
2022-11-27T04:56:56.482Z,3.80
2022-11-27T04:59:23.999Z,3.90
2022-11-27T05:01:51.506Z,4.00
2022-11-27T05:04:19.058Z,3.90
2022-11-27T05:06:46.555Z,3.80
2022-11-27T05:09:14.180Z,3.70
2022-11-27T05:11:41.608Z,3.70
2022-11-27T05:14:15.275Z,3.70
2022-11-27T05:16:45.723Z,3.80
2022-11-27T05:19:15.141Z,3.80
2022-11-27T05:21:43.905Z,3.80
2022-11-27T05:24:12.208Z,3.90
2022-11-27T05:26:41.625Z,3.90
2022-11-27T05:29:10.799Z,3.90
2022-11-27T05:31:38.907Z,3.90
2022-11-27T05:34:06.608Z,3.80
2022-11-27T05:36:35.110Z,3.90
2022-11-27T05:39:04.975Z,4.00
2022-11-27T05:41:33.528Z,4.10
2022-11-27T05:44:01.024Z,4.20
2022-11-27T05:46:28.706Z,4.10
2022-11-27T05:48:56.246Z,4.10
2022-11-27T05:51:23.693Z,4.00
2022-11-27T05:53:51.236Z,4.10
2022-11-27T05:56:19.167Z,4.10
2022-11-27T05:58:48.398Z,4.20
2022-11-27T06:01:18.137Z,4.10
2022-11-27T06:03:46.014Z,4.00
2022-11-27T06:06:17.417Z,4.00
2022-11-27T06:08:45.990Z,4.10
2022-11-27T06:11:18.771Z,4.10
2022-11-27T06:13:47.799Z,4.10
2022-11-27T06:16:22.437Z,3.90
2022-11-27T06:18:52.925Z,3.90
2022-11-27T06:21:21.960Z,3.80
2022-11-27T06:23:49.948Z,3.90
2022-11-27T06:26:21.738Z,3.90
2022-11-27T06:28:50.228Z,3.80
2022-11-27T06:31:23.945Z,3.70
2022-11-27T06:33:53.649Z,4.00
2022-11-27T06:36:24.122Z,4.00
2022-11-27T06:38:51.627Z,4.10
2022-11-27T06:41:24.839Z,4.10
2022-11-27T06:43:52.429Z,4.10
2022-11-27T06:46:22.992Z,4.20
2022-11-27T06:48:52.798Z,4.20
2022-11-27T06:51:27.253Z,4.20
2022-11-27T06:53:55.205Z,4.20
2022-11-27T06:56:26.572Z,4.20
2022-11-27T06:58:58.256Z,4.00
2022-11-27T07:01:28.401Z,4.00
2022-11-27T07:03:57.204Z,4.00
2022-11-27T07:06:27.017Z,4.10
2022-11-27T07:08:55.400Z,4.30
2022-11-27T07:11:29.985Z,4.30
2022-11-27T07:14:03.987Z,4.20
2022-11-27T07:16:35.315Z,4.20
2022-11-27T07:19:06.697Z,4.30
2022-11-27T07:21:34.470Z,4.20
2022-11-27T07:24:01.924Z,4.10
2022-11-27T07:26:31.173Z,4.20
2022-11-27T07:28:58.938Z,4.30
2022-11-27T07:31:29.425Z,4.40
2022-11-27T07:33:57.718Z,4.40
2022-11-27T07:36:28.995Z,4.50
2022-11-27T07:38:58.314Z,4.50
2022-11-27T07:41:30.555Z,4.50
2022-11-27T07:43:59.905Z,4.50
2022-11-27T07:46:27.386Z,4.50
2022-11-27T07:48:54.809Z,4.60
2022-11-27T07:51:22.980Z,4.70
2022-11-27T07:53:53.513Z,4.60
2022-11-27T07:56:21.744Z,4.40
2022-11-27T07:58:49.647Z,4.60
2022-11-27T08:01:19.618Z,4.80
2022-11-27T08:03:47.404Z,5.00
2022-11-27T08:06:26.640Z,5.00
2022-11-27T08:08:56.863Z,4.90
2022-11-27T08:11:29.847Z,5.00
2022-11-27T08:14:00.538Z,5.10
2022-11-27T08:16:29.122Z,5.20
2022-11-27T08:18:57.301Z,5.40
2022-11-27T08:21:25.116Z,5.40
2022-11-27T08:23:52.912Z,5.30
2022-11-27T08:26:21.241Z,5.10
2022-11-27T08:28:48.671Z,5.20
2022-11-27T08:31:16.291Z,5.20
2022-11-27T08:33:43.770Z,5.30
2022-11-27T08:36:17.496Z,5.20
2022-11-27T08:38:46.412Z,5.30
2022-11-27T08:41:14.182Z,5.50
2022-11-27T08:43:41.757Z,5.70
2022-11-27T08:46:10.170Z,5.80
2022-11-27T08:48:37.837Z,5.70
2022-11-27T08:51:14.859Z,5.80
2022-11-27T08:53:45.734Z,5.80
2022-11-27T08:56:23.437Z,5.70
2022-11-27T08:58:51.532Z,5.60
2022-11-27T09:01:29.135Z,5.60
2022-11-27T09:03:57.199Z,5.70
2022-11-27T09:06:29.395Z,5.80
2022-11-27T09:09:06.189Z,5.80
2022-11-27T09:11:35.140Z,5.80
2022-11-27T09:14:04.712Z,5.90
2022-11-27T09:16:32.746Z,6.00
2022-11-27T09:19:00.316Z,6.00
2022-11-27T09:21:30.866Z,6.00
2022-11-27T09:24:02.343Z,6.00
2022-11-27T09:26:30.410Z,5.90
2022-11-27T09:28:59.717Z,5.90
2022-11-27T09:31:27.720Z,6.00
2022-11-27T09:33:55.291Z,6.00
2022-11-27T09:36:25.935Z,6.00
2022-11-27T09:38:54.266Z,5.90
2022-11-27T09:41:44.812Z,6.00
2022-11-27T09:44:40.287Z,6.00
2022-11-27T09:47:24.608Z,6.20
2022-11-27T09:50:04.499Z,6.10
2022-11-27T09:53:04.732Z,6.10
2022-11-27T09:55:44.044Z,6.00
2022-11-27T09:58:32.866Z,6.00
2022-11-27T10:01:00.360Z,6.00
2022-11-27T10:03:28.927Z,6.00
2022-11-27T10:06:44.133Z,5.80
2022-11-27T10:09:38.659Z,5.60
2022-11-27T10:12:36.363Z,5.70
2022-11-27T10:15:34.513Z,5.90
2022-11-27T10:18:36.077Z,6.20
2022-11-27T10:21:16.183Z,6.20
2022-11-27T10:24:19.124Z,6.30
2022-11-27T10:26:48.880Z,6.60
2022-11-27T10:29:34.184Z,6.90
2022-11-27T10:32:53.656Z,6.90
2022-11-27T10:35:20.219Z,7.00
2022-11-27T10:38:00.986Z,7.00
2022-11-27T10:40:40.671Z,6.70
2022-11-27T10:43:18.925Z,6.60
2022-11-27T10:46:15.291Z,6.60
2022-11-27T10:48:42.937Z,6.60
2022-11-27T10:51:30.728Z,6.50
2022-11-27T10:54:01.235Z,6.40
2022-11-27T10:56:50.366Z,6.40
2022-11-27T10:59:33.023Z,6.40
2022-11-27T11:02:03.587Z,6.40
2022-11-27T11:04:39.749Z,6.30
2022-11-27T11:07:29.422Z,6.20
2022-11-27T11:09:57.272Z,6.10
2022-11-27T11:12:25.074Z,6.00
2022-11-27T11:14:56.406Z,5.90
2022-11-27T11:17:34.497Z,5.90
2022-11-27T11:20:30.852Z,6.00
2022-11-27T11:22:58.566Z,6.10
2022-11-27T11:25:26.031Z,6.20
2022-11-27T11:27:53.780Z,6.40
2022-11-27T11:30:29.309Z,6.50
2022-11-27T11:33:02.971Z,6.60
2022-11-27T11:35:34.926Z,6.70
2022-11-27T11:38:05.827Z,6.80
2022-11-27T11:40:38.060Z,6.70
2022-11-27T11:43:24.254Z,6.80
2022-11-27T11:45:51.761Z,6.60
2022-11-27T11:48:27.619Z,6.70
2022-11-27T11:51:12.268Z,6.80
2022-11-27T11:53:45.617Z,7.00
2022-11-27T11:56:41.892Z,7.00
2022-11-27T11:59:45.323Z,7.00
2022-11-27T12:02:59.825Z,6.90
2022-11-27T12:05:36.650Z,6.80
2022-11-27T12:08:44.528Z,6.90
2022-11-27T12:11:18.477Z,6.90
2022-11-27T12:14:36.280Z,6.90
2022-11-27T12:17:38.485Z,6.70
2022-11-27T12:20:11.313Z,6.60
2022-11-27T12:22:57.380Z,6.70
2022-11-27T12:25:37.568Z,6.70
2022-11-27T12:28:22.942Z,6.70
2022-11-27T12:31:30.486Z,6.70
2022-11-27T12:34:03.312Z,6.60
2022-11-27T12:37:15.713Z,6.60
2022-11-27T12:40:40.833Z,6.60
2022-11-27T12:43:27.752Z,6.60
2022-11-27T12:46:20.175Z,6.60
2022-11-27T12:49:11.577Z,6.50
2022-11-27T12:52:17.376Z,6.30
2022-11-27T12:55:15.593Z,6.30
2022-11-27T12:58:01.016Z,6.30
2022-11-27T13:00:31.458Z,6.20
2022-11-27T13:03:25.597Z,6.20
2022-11-27T13:06:24.539Z,6.10
2022-11-27T13:09:10.198Z,5.90
2022-11-27T13:11:40.280Z,5.90
2022-11-27T13:14:20.205Z,6.00
2022-11-27T13:17:01.074Z,6.00
2022-11-27T13:19:48.250Z,5.90
2022-11-27T13:22:27.616Z,5.80
2022-11-27T13:24:57.079Z,5.80
2022-11-27T13:27:27.525Z,5.80
2022-11-27T13:30:04.495Z,5.80
2022-11-27T13:32:48.204Z,5.90
2022-11-27T13:35:42.861Z,5.90
2022-11-27T13:38:13.077Z,6.00
2022-11-27T13:40:50.089Z,5.90
2022-11-27T13:43:47.805Z,5.90
2022-11-27T13:46:31.265Z,5.90
2022-11-27T13:49:05.390Z,5.80
2022-11-27T13:51:39.033Z,5.80
2022-11-27T13:54:16.056Z,5.80
2022-11-27T13:56:44.057Z,5.90
2022-11-27T13:59:25.192Z,5.90
2022-11-27T14:02:04.486Z,5.80
2022-11-27T14:04:34.091Z,5.70
2022-11-27T14:07:07.237Z,5.80
2022-11-27T14:09:42.334Z,5.70
2022-11-27T14:12:31.088Z,5.70
2022-11-27T14:15:24.380Z,5.60
2022-11-27T14:18:03.970Z,5.60
2022-11-27T14:20:35.779Z,5.50
2022-11-27T14:23:18.543Z,5.50
2022-11-27T14:25:46.173Z,5.40
2022-11-27T14:28:22.067Z,5.40
2022-11-27T14:30:59.899Z,5.50
2022-11-27T14:33:31.210Z,5.40
2022-11-27T14:36:04.031Z,5.40
2022-11-27T14:38:35.043Z,5.40
2022-11-27T14:41:21.514Z,5.40
2022-11-27T14:43:49.975Z,5.30
2022-11-27T14:46:20.978Z,5.30
2022-11-27T14:48:57.186Z,5.30
2022-11-27T14:51:35.208Z,5.20
2022-11-27T14:54:09.407Z,5.20
2022-11-27T14:56:43.877Z,5.10
2022-11-27T14:59:18.164Z,5.10
2022-11-27T15:01:48.009Z,5.10
2022-11-27T15:04:37.596Z,5.10
2022-11-27T15:07:22.330Z,5.00
2022-11-27T15:09:53.504Z,5.10
2022-11-27T15:12:34.270Z,5.00
2022-11-27T15:15:23.289Z,5.00
2022-11-27T15:17:55.852Z,5.00
2022-11-27T15:20:45.808Z,4.90
2022-11-27T15:23:34.455Z,4.90
2022-11-27T15:26:11.018Z,4.80
2022-11-27T15:28:55.398Z,4.70
2022-11-27T15:31:29.445Z,4.60
2022-11-27T15:34:01.270Z,4.50
2022-11-27T15:36:58.233Z,4.50
2022-11-27T15:39:53.700Z,4.40
2022-11-27T15:42:22.547Z,4.30
2022-11-27T15:44:54.560Z,4.20
2022-11-27T15:47:33.739Z,4.20
2022-11-27T15:50:01.333Z,4.10
2022-11-27T15:52:29.473Z,4.20
2022-11-27T15:54:56.997Z,4.20
2022-11-27T15:57:25.341Z,4.20
2022-11-27T15:59:53.004Z,4.20
2022-11-27T16:02:20.546Z,4.30
2022-11-27T16:04:48.007Z,4.40
2022-11-27T16:07:15.639Z,4.30
2022-11-27T16:09:43.108Z,4.20
2022-11-27T16:12:10.520Z,4.20
2022-11-27T16:14:38.697Z,4.30
2022-11-27T16:17:06.444Z,4.30
2022-11-27T16:19:33.817Z,4.30
2022-11-27T16:22:01.359Z,4.40
2022-11-27T16:24:28.756Z,4.40
2022-11-27T16:26:56.289Z,4.20
2022-11-27T16:29:23.737Z,4.10
2022-11-27T16:31:51.267Z,4.00
2022-11-27T16:34:19.001Z,3.80
2022-11-27T16:36:46.490Z,3.90
2022-11-27T16:39:13.912Z,3.80
2022-11-27T16:41:41.382Z,3.70
2022-11-27T16:44:14.723Z,3.70
2022-11-27T16:46:44.424Z,3.80
2022-11-27T16:49:12.734Z,3.80
2022-11-27T16:51:40.884Z,3.70
2022-11-27T16:54:12.830Z,3.70
2022-11-27T16:56:40.591Z,3.80
2022-11-27T16:59:14.199Z,3.70
2022-11-27T17:01:42.821Z,3.70
2022-11-27T17:04:18.764Z,3.60
2022-11-27T17:06:48.296Z,3.70
2022-11-27T17:09:16.767Z,3.60
2022-11-27T17:11:50.630Z,3.70
2022-11-27T17:14:19.816Z,3.50
2022-11-27T17:16:47.735Z,3.50
2022-11-27T17:19:16.779Z,3.40
2022-11-27T17:21:44.685Z,3.40
2022-11-27T17:24:15.890Z,3.30
2022-11-27T17:26:45.301Z,3.30
2022-11-27T17:29:16.610Z,3.30
2022-11-27T17:31:44.744Z,3.20
2022-11-27T17:34:14.986Z,3.20
2022-11-27T17:36:44.944Z,3.30
2022-11-27T17:39:15.394Z,3.30
2022-11-27T17:41:45.345Z,3.30
2022-11-27T17:44:13.243Z,3.30
2022-11-27T17:46:40.991Z,3.20
2022-11-27T17:49:08.821Z,3.20
2022-11-27T17:51:37.357Z,3.20
2022-11-27T17:54:05.644Z,3.10
2022-11-27T17:56:34.859Z,3.20
2022-11-27T17:59:03.174Z,3.10
2022-11-27T18:01:31.306Z,3.00
2022-11-27T18:04:02.237Z,3.00
2022-11-27T18:06:30.618Z,3.00
2022-11-27T18:08:58.480Z,3.00
2022-11-27T18:11:29.429Z,3.10
2022-11-27T18:13:57.136Z,3.10
2022-11-27T18:16:31.974Z,3.10
2022-11-27T18:19:06.487Z,3.20
2022-11-27T18:21:34.668Z,3.30
2022-11-27T18:29:42.641Z,3.40
2022-11-27T18:32:12.101Z,3.40
2022-11-27T18:34:40.554Z,3.30
2022-11-27T18:37:08.630Z,3.40
2022-11-27T18:39:37.641Z,3.40
2022-11-27T18:42:06.543Z,3.40
2022-11-27T18:44:39.668Z,3.40
2022-11-27T18:47:10.776Z,3.40
2022-11-27T18:49:39.688Z,3.40
2022-11-27T18:52:08.231Z,3.40
2022-11-27T18:54:37.388Z,3.40
2022-11-27T18:57:07.232Z,3.30
2022-11-27T18:59:35.418Z,3.40
2022-11-27T19:02:04.369Z,3.40
2022-11-27T19:04:32.047Z,3.40
2022-11-27T19:06:59.465Z,3.40
2022-11-27T19:09:26.857Z,3.50
2022-11-27T19:11:54.327Z,3.50
2022-11-27T19:14:21.816Z,3.50
2022-11-27T19:16:49.844Z,3.50
2022-11-27T19:19:53.443Z,3.50
2022-11-27T19:22:08.177Z,3.50
2022-11-27T19:24:37.078Z,3.60
2022-11-27T19:27:04.619Z,3.60
2022-11-27T19:29:32.095Z,3.60
2022-11-27T19:32:01.286Z,3.70
2022-11-27T19:34:29.245Z,3.70
2022-11-27T19:36:58.539Z,3.60
2022-11-27T19:39:27.442Z,3.70
2022-11-27T19:41:55.110Z,3.60
2022-11-27T19:44:22.492Z,3.70
2022-11-27T19:46:50.036Z,3.60
2022-11-27T19:49:18.458Z,3.60
2022-11-27T19:51:46.696Z,3.50
2022-11-27T19:54:14.950Z,3.50
2022-11-27T19:56:43.354Z,3.40
2022-11-27T19:59:11.628Z,3.40
2022-11-27T20:01:40.486Z,3.30
2022-11-27T20:04:11.332Z,3.20
2022-11-27T20:06:39.663Z,3.10
2022-11-27T20:09:07.539Z,3.10
2022-11-27T20:11:38.304Z,3.10
2022-11-27T20:14:07.088Z,3.00
2022-11-27T20:16:38.122Z,2.90
2022-11-27T20:19:06.348Z,2.90
2022-11-27T20:21:34.242Z,2.80
2022-11-27T20:24:02.625Z,2.80
2022-11-27T20:26:30.867Z,2.80
2022-11-27T20:28:59.012Z,2.80
2022-11-27T20:31:33.073Z,2.80
2022-11-27T20:34:03.773Z,2.80
2022-11-27T20:36:33.718Z,2.80
2022-11-27T20:39:01.900Z,2.80
2022-11-27T20:41:30.187Z,2.80
2022-11-27T20:44:01.211Z,2.70
2022-11-27T20:46:29.124Z,2.70
2022-11-27T20:48:57.592Z,2.70
2022-11-27T20:51:28.839Z,2.60
2022-11-27T20:53:58.333Z,2.50
2022-11-27T20:56:26.258Z,2.50
2022-11-27T20:58:54.392Z,2.50
2022-11-27T21:01:21.839Z,2.40
2022-11-27T21:03:52.614Z,2.30
2022-11-27T21:06:23.464Z,2.30
2022-11-27T21:08:51.739Z,2.20
2022-11-27T21:11:26.176Z,2.20
2022-11-27T21:13:56.167Z,2.20
2022-11-27T21:16:29.683Z,2.20
2022-11-27T21:19:01.649Z,2.20
2022-11-27T21:21:29.569Z,2.20
2022-11-27T21:23:57.978Z,2.10
2022-11-27T21:26:26.147Z,2.10
2022-11-27T21:28:53.746Z,2.00
2022-11-27T21:31:24.940Z,2.00
2022-11-27T21:34:02.220Z,2.10
2022-11-27T21:36:33.622Z,2.10
2022-11-27T21:39:02.310Z,2.30
2022-11-27T21:41:31.812Z,2.10
2022-11-27T21:44:01.995Z,2.00
2022-11-27T21:46:30.391Z,1.80
2022-11-27T21:49:02.276Z,1.70
2022-11-27T21:51:30.989Z,1.70
2022-11-27T21:53:59.685Z,1.60
2022-11-27T21:56:29.417Z,1.50
2022-11-27T21:58:57.098Z,1.50
2022-11-27T22:01:25.916Z,1.40
2022-11-27T22:03:57.568Z,1.30
2022-11-27T22:06:28.972Z,1.60
2022-11-27T22:08:59.091Z,1.50
2022-11-27T22:11:30.444Z,1.50
2022-11-27T22:14:00.982Z,1.40
2022-11-27T22:16:31.942Z,1.40
2022-11-27T22:19:00.671Z,1.40
2022-11-27T22:21:30.363Z,1.40
2022-11-27T22:23:58.756Z,1.40
2022-11-27T22:26:26.308Z,1.40
2022-11-27T22:28:54.202Z,1.40
2022-11-27T22:31:34.724Z,1.40
2022-11-27T22:34:02.337Z,1.40
2022-11-27T22:36:33.149Z,1.30
2022-11-27T22:39:04.580Z,1.20
2022-11-27T22:41:36.316Z,1.20
2022-11-27T22:44:15.216Z,1.20
2022-11-27T22:46:43.464Z,1.20
2022-11-27T22:49:14.239Z,1.20
2022-11-27T22:51:42.146Z,1.20
2022-11-27T22:54:13.836Z,1.20
2022-11-27T22:56:41.846Z,1.30
2022-11-27T23:01:57.972Z,1.40
2022-11-27T23:04:25.441Z,1.30
2022-11-27T23:06:52.925Z,1.30
2022-11-27T23:09:20.315Z,1.20
2022-11-27T23:11:48.105Z,1.10
2022-11-27T23:14:15.807Z,1.20
2022-11-27T23:16:43.363Z,1.20
2022-11-27T23:19:11.910Z,1.20
2022-11-27T23:21:40.046Z,1.30
2022-11-27T23:24:11.935Z,1.30
2022-11-27T23:26:39.490Z,1.30
2022-11-27T23:29:07.519Z,1.20
2022-11-27T23:31:36.287Z,1.10
2022-11-27T23:34:08.530Z,1.30
2022-11-27T23:36:37.358Z,1.30
2022-11-27T23:39:07.561Z,1.20
2022-11-27T23:41:35.447Z,1.30
2022-11-27T23:44:02.965Z,1.20
2022-11-27T23:46:31.638Z,1.10
2022-11-27T23:49:00.519Z,1.10
2022-11-27T23:51:33.469Z,1.10
2022-11-27T23:54:02.247Z,1.30
2022-11-27T23:56:32.114Z,1.40
2022-11-27T23:59:00.186Z,1.30
